createdAt,value
2019-05-06T00:02:43.473Z,77.26
2019-05-06T00:05:51.551Z,77.89
2019-05-06T00:08:59.556Z,78.26
2019-05-06T00:12:07.508Z,77.22
2019-05-06T00:15:15.569Z,77.22
2019-05-06T00:18:24.509Z,76.33
2019-05-06T00:21:35.561Z,76.33
2019-05-06T00:24:54.670Z,77.87
2019-05-06T00:28:26.595Z,76.65
2019-05-06T00:31:35.377Z,76.93
2019-05-06T00:34:43.724Z,76.93
2019-05-06T00:37:53.579Z,77.74
2019-05-06T00:41:04.622Z,78.10
2019-05-06T00:44:14.296Z,77.46
2019-05-06T00:47:21.936Z,77.46
2019-05-06T00:50:29.910Z,78.35
2019-05-06T00:53:39.248Z,78.00
2019-05-06T00:56:47.468Z,78.02
2019-05-06T00:59:55.406Z,79.02
2019-05-06T01:03:04.303Z,79.96
2019-05-06T01:06:14.190Z,80.97
2019-05-06T01:09:23.395Z,80.97
2019-05-06T01:12:31.446Z,79.89
2019-05-06T01:15:38.293Z,79.68
2019-05-06T01:18:46.580Z,79.62
2019-05-06T01:21:54.399Z,79.69
2019-05-06T01:25:01.474Z,79.69
2019-05-06T01:28:09.362Z,79.23
2019-05-06T01:31:17.587Z,80.54
2019-05-06T01:34:25.541Z,81.54
2019-05-06T01:37:34.752Z,81.07
2019-05-06T01:40:54.606Z,81.07
2019-05-06T01:44:04.255Z,79.77
2019-05-06T01:47:14.391Z,80.33
2019-05-06T01:50:23.541Z,80.31
2019-05-06T01:53:33.762Z,80.34
2019-05-06T01:56:41.604Z,81.03
2019-05-06T01:59:50.013Z,81.42
2019-05-06T02:02:58.249Z,81.42
2019-05-06T02:06:06.559Z,83.23
2019-05-06T02:09:17.970Z,82.14
2019-05-06T02:12:26.276Z,83.17
2019-05-06T02:15:35.573Z,82.78
2019-05-06T02:18:44.809Z,82.44
2019-05-06T02:22:14.460Z,82.44
2019-05-06T02:25:30.241Z,81.63
2019-05-06T02:28:40.372Z,81.63
2019-05-06T02:32:21.138Z,81.85
2019-05-06T02:35:26.378Z,82.66
2019-05-06T02:38:46.020Z,82.98
2019-05-06T02:41:43.567Z,82.66
2019-05-06T02:44:54.027Z,85.35
2019-05-06T02:48:26.247Z,85.35
2019-05-06T02:51:35.040Z,82.82
2019-05-06T02:54:43.043Z,82.14
2019-05-06T02:57:53.684Z,82.08
2019-05-06T03:01:03.628Z,81.57
2019-05-06T03:04:13.249Z,81.77
2019-05-06T03:07:23.321Z,81.72
2019-05-06T03:10:32.873Z,82.08
2019-05-06T03:13:43.756Z,82.58
2019-05-06T03:16:53.766Z,82.07
2019-05-06T03:20:04.192Z,82.58
2019-05-06T03:23:14.252Z,82.58
2019-05-06T03:26:23.545Z,82.03
2019-05-06T03:29:33.402Z,81.91
2019-05-06T03:33:20.250Z,81.91
2019-05-06T03:36:06.439Z,81.63
2019-05-06T03:39:03.152Z,81.63
2019-05-06T03:42:16.044Z,81.61
2019-05-06T03:45:42.878Z,82.00
2019-05-06T03:48:53.096Z,82.00
2019-05-06T03:52:02.755Z,83.67
2019-05-06T03:55:13.843Z,82.14
2019-05-06T03:58:26.307Z,82.38
2019-05-06T04:01:33.375Z,81.41
2019-05-06T04:04:43.795Z,81.38
2019-05-06T04:07:53.082Z,81.38
2019-05-06T04:11:02.941Z,81.08
2019-05-06T04:14:13.697Z,83.37
2019-05-06T04:17:33.545Z,83.80
2019-05-06T04:20:48.251Z,80.90
2019-05-06T04:24:05.269Z,80.90
2019-05-06T04:27:42.777Z,80.89
2019-05-06T04:30:50.284Z,80.55
2019-05-06T04:34:10.063Z,79.85
2019-05-06T04:37:09.376Z,79.30
2019-05-06T04:40:18.836Z,79.04
2019-05-06T04:43:27.292Z,78.41
2019-05-06T04:46:36.450Z,78.85
2019-05-06T04:49:44.356Z,78.26
2019-05-06T04:53:05.893Z,78.72
2019-05-06T04:56:14.690Z,78.49
2019-05-06T04:59:23.235Z,79.32
2019-05-06T05:02:33.654Z,79.23
2019-05-06T05:05:44.930Z,79.09
2019-05-06T05:08:53.210Z,79.09
2019-05-06T05:12:07.516Z,80.50
2019-05-06T05:15:25.717Z,80.33
2019-05-06T05:18:42.494Z,80.33
2019-05-06T05:21:52.242Z,81.07
2019-05-06T05:25:03.258Z,78.19
2019-05-06T05:28:10.239Z,78.19
2019-05-06T05:31:18.550Z,77.53
2019-05-06T05:34:37.198Z,75.39
2019-05-06T05:37:37.558Z,75.39
2019-05-06T05:40:45.548Z,72.28
2019-05-06T05:44:32.412Z,71.34
2019-05-06T05:51:06.096Z,72.46
2019-05-06T05:54:14.249Z,70.20
2019-05-06T05:57:22.650Z,68.93
2019-05-06T06:00:32.514Z,67.96
2019-05-06T06:03:42.199Z,66.90
2019-05-06T06:06:52.001Z,65.04
2019-05-06T06:10:18.084Z,63.08
2019-05-06T06:13:26.097Z,62.96
2019-05-06T06:16:45.239Z,61.56
2019-05-06T06:19:59.089Z,63.17
2019-05-06T06:23:16.280Z,60.54
2019-05-06T06:26:24.531Z,59.71
2019-05-06T06:29:32.498Z,59.16
2019-05-06T06:32:41.932Z,59.16
2019-05-06T06:36:02.842Z,56.86
2019-05-06T06:39:16.251Z,57.54
2019-05-06T06:42:24.361Z,56.20
2019-05-06T06:45:32.683Z,52.91
2019-05-06T06:48:43.062Z,52.20
2019-05-06T06:51:53.228Z,51.85
2019-05-06T06:55:02.384Z,50.89
2019-05-06T06:58:26.218Z,53.24
2019-05-06T07:01:44.223Z,49.91
2019-05-06T07:05:24.787Z,46.78
2019-05-06T07:08:33.993Z,46.52
2019-05-06T07:11:34.279Z,46.86
2019-05-06T07:14:42.909Z,50.15
2019-05-06T07:17:52.503Z,49.48
2019-05-06T07:21:06.599Z,44.50
2019-05-06T07:24:15.425Z,44.50
2019-05-06T07:27:25.684Z,43.64
2019-05-06T07:30:34.580Z,47.71
2019-05-06T07:33:43.030Z,50.66
2019-05-06T07:36:52.481Z,50.66
2019-05-06T07:40:03.041Z,50.12
2019-05-06T07:43:29.585Z,52.53
2019-05-06T07:46:44.643Z,53.05
2019-05-06T07:49:53.240Z,51.96
2019-05-06T07:53:07.549Z,52.12
2019-05-06T07:56:15.618Z,52.10
2019-05-06T07:59:23.577Z,51.68
2019-05-06T08:02:32.090Z,53.02
2019-05-06T08:05:55.228Z,53.02
2019-05-06T08:08:53.634Z,52.91
2019-05-06T08:12:02.796Z,52.01
2019-05-06T08:15:12.660Z,47.94
2019-05-06T08:18:22.572Z,47.50
2019-05-06T08:21:32.686Z,47.79
2019-05-06T08:24:42.255Z,47.79
2019-05-06T08:27:49.707Z,49.28
2019-05-06T08:30:58.223Z,47.78
2019-05-06T08:34:06.404Z,47.85
2019-05-06T08:37:28.383Z,48.62
2019-05-06T08:40:36.358Z,48.88
2019-05-06T08:43:44.415Z,48.07
2019-05-06T08:46:53.289Z,47.56
2019-05-06T08:50:07.270Z,47.24
2019-05-06T08:53:24.381Z,46.77
2019-05-06T08:56:35.549Z,47.33
2019-05-06T08:59:43.646Z,48.09
2019-05-06T09:02:53.017Z,48.09
2019-05-06T09:06:03.185Z,47.39
2019-05-06T09:09:12.997Z,48.80
2019-05-06T09:12:22.376Z,46.78
2019-05-06T09:15:29.641Z,46.78
2019-05-06T09:18:37.563Z,48.18
2019-05-06T09:21:46.494Z,49.64
2019-05-06T09:24:55.521Z,49.64
2019-05-06T09:28:13.163Z,52.86
2019-05-06T09:31:24.455Z,52.15
2019-05-06T09:34:42.890Z,51.89
2019-05-06T09:37:53.379Z,50.92
2019-05-06T09:41:04.951Z,48.00
2019-05-06T09:44:12.413Z,48.00
2019-05-06T09:47:48.634Z,48.48
2019-05-06T09:50:56.566Z,47.93
2019-05-06T09:54:23.746Z,47.80
2019-05-06T09:57:34.250Z,47.80
2019-05-06T10:00:45.573Z,47.17
2019-05-06T10:03:54.275Z,46.83
2019-05-06T10:07:02.863Z,46.83
2019-05-06T10:10:10.641Z,47.19
2019-05-06T10:13:18.636Z,48.15
2019-05-06T10:16:26.586Z,46.89
2019-05-06T10:19:34.658Z,48.07
2019-05-06T10:22:43.138Z,48.07
2019-05-06T10:25:52.339Z,48.83
2019-05-06T10:29:22.296Z,47.84
2019-05-06T10:32:36.254Z,47.84
2019-05-06T10:35:44.421Z,48.21
2019-05-06T10:38:58.843Z,45.84
2019-05-06T10:42:13.313Z,44.83
2019-05-06T10:45:32.389Z,43.08
2019-05-06T10:48:42.400Z,43.90
2019-05-06T10:51:58.542Z,43.99
2019-05-06T10:55:06.579Z,45.28
2019-05-06T10:58:14.553Z,45.47
2019-05-06T11:01:33.087Z,42.28
2019-05-06T11:04:42.630Z,42.28
2019-05-06T11:07:52.157Z,40.95
2019-05-06T11:11:12.476Z,41.52
2019-05-06T11:14:09.532Z,42.84
2019-05-06T11:17:17.691Z,41.08
2019-05-06T11:20:25.540Z,41.08
2019-05-06T11:23:33.938Z,35.62
2019-05-06T11:26:45.253Z,35.62
2019-05-06T11:29:55.241Z,37.10
2019-05-06T11:33:13.041Z,37.36
2019-05-06T11:36:46.410Z,39.44
2019-05-06T11:39:53.333Z,38.88
2019-05-06T11:43:01.611Z,40.39
2019-05-06T11:46:11.740Z,43.10
2019-05-06T11:49:18.430Z,43.10
2019-05-06T11:52:26.334Z,42.79
2019-05-06T11:55:38.791Z,41.98
2019-05-06T11:58:53.182Z,39.98
2019-05-06T12:02:02.795Z,39.63
2019-05-06T12:05:12.531Z,40.58
2019-05-06T12:08:22.173Z,38.51
2019-05-06T12:11:30.563Z,38.51
2019-05-06T12:14:38.535Z,38.20
2019-05-06T12:17:46.409Z,38.20
2019-05-06T12:21:07.967Z,38.36
2019-05-06T12:24:04.432Z,36.26
2019-05-06T12:27:14.255Z,35.44
2019-05-06T12:30:24.258Z,36.25
2019-05-06T12:33:36.233Z,37.01
2019-05-06T12:36:44.100Z,35.55
2019-05-06T12:39:55.577Z,35.43
2019-05-06T12:43:22.544Z,35.32
2019-05-06T12:46:43.566Z,35.32
2019-05-06T12:49:53.417Z,35.88
2019-05-06T12:53:01.374Z,35.88
2019-05-06T12:56:09.602Z,35.53
2019-05-06T12:59:17.561Z,35.46
2019-05-06T13:02:25.640Z,34.16
2019-05-06T13:05:33.578Z,33.27
2019-05-06T13:08:56.813Z,34.48
2019-05-06T13:11:52.360Z,34.48
2019-05-06T13:15:03.301Z,32.08
2019-05-06T13:18:11.535Z,33.68
2019-05-06T13:21:22.209Z,34.05
2019-05-06T13:24:29.491Z,34.05
2019-05-06T13:27:37.590Z,34.36
2019-05-06T13:30:45.529Z,33.97
2019-05-06T13:34:02.826Z,34.35
2019-05-06T13:37:12.734Z,34.24
2019-05-06T13:40:19.811Z,34.24
2019-05-06T13:43:35.272Z,34.30
2019-05-06T13:46:54.589Z,34.86
2019-05-06T13:50:03.089Z,32.55
2019-05-06T13:53:14.441Z,32.55
2019-05-06T13:56:21.302Z,31.86
2019-05-06T13:59:30.569Z,32.82
2019-05-06T14:02:48.616Z,32.71
2019-05-06T14:05:56.575Z,33.29
2019-05-06T14:09:05.102Z,33.29
2019-05-06T14:12:13.886Z,33.44
2019-05-06T14:15:23.217Z,32.95
2019-05-06T14:18:30.329Z,32.86
2019-05-06T14:21:38.542Z,32.97
2019-05-06T14:24:56.489Z,30.99
2019-05-06T14:28:12.434Z,30.99
2019-05-06T14:31:27.006Z,32.38
2019-05-06T14:34:35.240Z,32.38
2019-05-06T14:37:45.459Z,32.46
2019-05-06T14:41:13.131Z,31.43
2019-05-06T14:44:23.240Z,30.64
2019-05-06T14:47:33.235Z,29.91
2019-05-06T14:50:46.078Z,32.90
2019-05-06T14:53:52.981Z,32.26
2019-05-06T14:57:08.596Z,34.09
2019-05-06T15:00:19.248Z,35.78
2019-05-06T15:03:27.511Z,35.78
2019-05-06T15:06:36.239Z,35.94
2019-05-06T15:09:58.556Z,35.94
2019-05-06T15:12:55.511Z,36.19
2019-05-06T15:16:03.802Z,36.10
2019-05-06T15:19:12.846Z,36.10
2019-05-06T15:22:22.636Z,36.47
2019-05-06T15:25:33.115Z,35.90
2019-05-06T15:28:42.550Z,35.37
2019-05-06T15:32:08.246Z,34.96
2019-05-06T15:35:52.470Z,35.48
2019-05-06T15:39:02.400Z,34.37
2019-05-06T15:42:12.901Z,34.62
2019-05-06T15:45:21.973Z,35.82
2019-05-06T15:48:33.045Z,33.99
2019-05-06T15:51:42.749Z,35.41
2019-05-06T15:54:52.449Z,34.29
2019-05-06T15:58:00.569Z,34.96
2019-05-06T16:01:09.551Z,37.67
2019-05-06T16:04:17.737Z,37.45
2019-05-06T16:07:26.273Z,37.45
2019-05-06T16:10:51.348Z,36.83
2019-05-06T16:13:45.116Z,36.83
2019-05-06T16:16:53.075Z,35.89
2019-05-06T16:20:02.749Z,36.73
2019-05-06T16:23:42.405Z,36.84
2019-05-06T16:26:52.687Z,36.87
2019-05-06T16:30:03.461Z,36.87
2019-05-06T16:33:18.800Z,36.23
2019-05-06T16:36:25.642Z,37.52
2019-05-06T16:39:37.420Z,36.83
2019-05-06T16:42:45.846Z,36.74
2019-05-06T16:45:54.044Z,37.93
2019-05-06T16:49:03.971Z,37.29
2019-05-06T16:52:13.020Z,37.81
2019-05-06T16:55:33.727Z,38.37
2019-05-06T16:58:52.714Z,38.66
2019-05-06T17:02:07.265Z,38.00
2019-05-06T17:05:33.707Z,39.53
2019-05-06T17:08:42.517Z,38.78
2019-05-06T17:11:51.729Z,39.55
2019-05-06T17:15:03.337Z,38.98
2019-05-06T17:18:15.259Z,39.55
2019-05-06T17:21:24.608Z,39.55
2019-05-06T17:24:33.370Z,39.67
2019-05-06T17:27:43.493Z,41.56
2019-05-06T17:31:13.245Z,41.28
2019-05-06T17:34:26.251Z,40.74
2019-05-06T17:37:52.744Z,41.75
2019-05-06T17:41:02.993Z,42.70
2019-05-06T17:44:13.927Z,42.76
2019-05-06T17:47:32.083Z,42.43
2019-05-06T17:50:42.038Z,43.77
2019-05-06T17:53:53.266Z,46.59
2019-05-06T17:57:04.648Z,48.77
2019-05-06T18:00:14.260Z,48.42
2019-05-06T18:03:24.908Z,46.21
2019-05-06T18:06:36.701Z,45.94
2019-05-06T18:09:49.172Z,47.60
2019-05-06T18:12:57.724Z,46.25
2019-05-06T18:16:09.083Z,46.78
2019-05-06T18:19:18.166Z,50.44
2019-05-06T18:22:26.585Z,49.32
2019-05-06T18:25:34.593Z,49.08
2019-05-06T18:28:46.703Z,49.08
2019-05-06T18:31:54.722Z,51.21
2019-05-06T18:35:02.915Z,51.24
2019-05-06T18:38:11.131Z,52.75
2019-05-06T18:41:20.774Z,56.37
2019-05-06T18:44:28.927Z,54.58
2019-05-06T18:47:38.168Z,55.87
2019-05-06T18:50:46.638Z,56.10
2019-05-06T18:53:56.414Z,59.80
2019-05-06T18:57:06.090Z,59.80
2019-05-06T19:00:16.032Z,59.29
2019-05-06T19:03:27.634Z,61.60
2019-05-06T19:06:36.636Z,63.01
2019-05-06T19:10:03.190Z,60.84
2019-05-06T19:13:12.687Z,62.67
2019-05-06T19:16:22.346Z,62.67
2019-05-06T19:19:34.180Z,62.01
2019-05-06T19:22:43.112Z,66.63
2019-05-06T19:25:52.594Z,66.06
2019-05-06T19:29:04.354Z,65.54
2019-05-06T19:32:12.341Z,65.54
2019-05-06T19:35:22.260Z,67.08
2019-05-06T19:38:33.570Z,67.08
2019-05-06T19:41:39.372Z,67.58
2019-05-06T19:44:48.343Z,68.92
2019-05-06T19:47:58.010Z,69.94
2019-05-06T19:51:07.661Z,70.80
2019-05-06T19:54:18.538Z,70.80
2019-05-06T19:57:26.944Z,70.89
2019-05-06T20:00:35.051Z,70.89
2019-05-06T20:03:46.759Z,73.16
2019-05-06T20:07:18.439Z,74.06
2019-05-06T20:10:42.037Z,72.29
2019-05-06T20:13:52.440Z,74.80
2019-05-06T20:17:00.551Z,75.07
2019-05-06T20:20:13.508Z,74.15
2019-05-06T20:23:18.847Z,74.15
2019-05-06T20:26:27.297Z,74.76
2019-05-06T20:29:38.204Z,73.25
2019-05-06T20:32:44.577Z,74.15
2019-05-06T20:35:52.940Z,75.87
2019-05-06T20:39:02.491Z,75.87
2019-05-06T20:42:15.946Z,74.54
2019-05-06T20:45:24.333Z,74.98
2019-05-06T20:48:32.533Z,73.88
2019-05-06T20:51:42.433Z,74.60
2019-05-06T20:54:50.127Z,74.99
2019-05-06T20:57:58.156Z,73.88
2019-05-06T21:01:06.645Z,76.50
2019-05-06T21:04:16.566Z,75.40
2019-05-06T21:07:26.238Z,75.40
2019-05-06T21:10:35.751Z,76.35
2019-05-06T21:13:43.536Z,76.35
2019-05-06T21:16:51.608Z,75.49
2019-05-06T21:19:59.548Z,75.34
2019-05-06T21:23:07.659Z,76.07
2019-05-06T21:26:15.553Z,76.07
2019-05-06T21:29:23.675Z,81.46
2019-05-06T21:32:33.006Z,81.46
2019-05-06T21:35:42.638Z,81.31
2019-05-06T21:38:52.445Z,78.80
2019-05-06T21:42:02.038Z,78.82
2019-05-06T21:45:12.592Z,78.82
2019-05-06T21:48:22.306Z,77.99
2019-05-06T21:51:32.712Z,78.03
2019-05-06T21:54:43.260Z,78.18
2019-05-06T21:57:52.945Z,79.51
2019-05-06T22:01:05.899Z,79.42
2019-05-06T22:04:14.363Z,78.50
2019-05-06T22:07:24.321Z,78.40
2019-05-06T22:10:32.675Z,77.84
2019-05-06T22:13:42.588Z,78.32
2019-05-06T22:16:50.553Z,78.13
2019-05-06T22:19:58.540Z,77.54
2019-05-06T22:23:06.578Z,77.66
2019-05-06T22:26:16.298Z,77.83
2019-05-06T22:29:24.579Z,77.83
2019-05-06T22:32:35.264Z,77.39
2019-05-06T22:35:45.534Z,77.39
2019-05-06T22:38:53.617Z,78.20
2019-05-06T22:42:02.679Z,78.20
2019-05-06T22:45:12.555Z,78.34
2019-05-06T22:48:22.210Z,77.17
2019-05-06T22:51:32.306Z,77.17
2019-05-06T22:54:39.475Z,77.71
2019-05-06T22:57:47.553Z,77.75
2019-05-06T23:00:56.614Z,76.72
2019-05-06T23:04:05.031Z,77.10
2019-05-06T23:07:14.433Z,77.10
2019-05-06T23:10:24.826Z,79.15
2019-05-06T23:13:32.709Z,77.46
2019-05-06T23:16:42.446Z,77.46
2019-05-06T23:19:52.783Z,76.32
2019-05-06T23:23:02.411Z,77.95
2019-05-06T23:26:24.402Z,77.95
2019-05-06T23:29:32.573Z,76.21
2019-05-06T23:32:42.259Z,76.25
2019-05-06T23:35:51.810Z,76.25
2019-05-06T23:40:00.589Z,76.34
2019-05-06T23:44:03.250Z,74.87
2019-05-06T23:48:07.053Z,74.87
2019-05-06T23:52:12.036Z,75.67
2019-05-06T23:56:14.927Z,75.50
2019-05-06T23:59:22.670Z,77.09
